sensor_id;sensor_type;location;lat;lon;timestamp;temperature;humidity
28520;DHT22;15732;48.534;20.382;2022-10-22T00:00:42;10.10;99.90
28520;DHT22;15732;48.534;20.382;2022-10-22T00:03:10;10.10;99.90
28520;DHT22;15732;48.534;20.382;2022-10-22T00:05:37;10.10;99.90
28520;DHT22;15732;48.534;20.382;2022-10-22T00:08:05;10.10;99.90
28520;DHT22;15732;48.534;20.382;2022-10-22T00:10:32;10.10;99.90
28520;DHT22;15732;48.534;20.382;2022-10-22T00:13:03;10.10;99.90
28520;DHT22;15732;48.534;20.382;2022-10-22T00:15:31;10.00;99.90
28520;DHT22;15732;48.534;20.382;2022-10-22T00:18:02;10.00;99.90
28520;DHT22;15732;48.534;20.382;2022-10-22T00:20:29;10.10;99.90
28520;DHT22;15732;48.534;20.382;2022-10-22T00:22:59;10.10;99.90
28520;DHT22;15732;48.534;20.382;2022-10-22T00:25:27;10.10;99.90
28520;DHT22;15732;48.534;20.382;2022-10-22T00:27:54;10.10;99.90
28520;DHT22;15732;48.534;20.382;2022-10-22T00:30:21;10.10;99.90
28520;DHT22;15732;48.534;20.382;2022-10-22T00:32:52;10.10;99.90
28520;DHT22;15732;48.534;20.382;2022-10-22T00:35:23;10.10;99.90
28520;DHT22;15732;48.534;20.382;2022-10-22T00:37:50;10.10;99.90
28520;DHT22;15732;48.534;20.382;2022-10-22T00:40:21;10.10;99.90
28520;DHT22;15732;48.534;20.382;2022-10-22T00:42:53;10.10;99.90
28520;DHT22;15732;48.534;20.382;2022-10-22T00:45:22;10.10;99.90
28520;DHT22;15732;48.534;20.382;2022-10-22T00:48:03;10.00;99.90
28520;DHT22;15732;48.534;20.382;2022-10-22T00:53:05;9.90;99.90
28520;DHT22;15732;48.534;20.382;2022-10-22T00:55:34;9.90;99.90
28520;DHT22;15732;48.534;20.382;2022-10-22T00:58:02;9.80;99.90
28520;DHT22;15732;48.534;20.382;2022-10-22T01:00:29;9.80;99.90
28520;DHT22;15732;48.534;20.382;2022-10-22T01:03:01;9.80;99.90
28520;DHT22;15732;48.534;20.382;2022-10-22T01:05:30;9.80;99.90
28520;DHT22;15732;48.534;20.382;2022-10-22T01:07:59;9.80;99.90
28520;DHT22;15732;48.534;20.382;2022-10-22T01:16:46;9.70;99.90
28520;DHT22;15732;48.534;20.382;2022-10-22T01:21:55;9.70;99.90
28520;DHT22;15732;48.534;20.382;2022-10-22T01:24:33;9.70;99.90
28520;DHT22;15732;48.534;20.382;2022-10-22T01:29:54;9.60;99.90
28520;DHT22;15732;48.534;20.382;2022-10-22T01:32:30;9.60;99.90
28520;DHT22;15732;48.534;20.382;2022-10-22T01:35:02;9.60;99.90
28520;DHT22;15732;48.534;20.382;2022-10-22T01:37:33;9.50;99.90
28520;DHT22;15732;48.534;20.382;2022-10-22T01:40:01;9.60;99.90
28520;DHT22;15732;48.534;20.382;2022-10-22T01:42:32;9.60;99.90
28520;DHT22;15732;48.534;20.382;2022-10-22T01:45:11;9.60;99.90
28520;DHT22;15732;48.534;20.382;2022-10-22T01:48:05;9.60;99.90
28520;DHT22;15732;48.534;20.382;2022-10-22T01:53:19;9.60;99.90
28520;DHT22;15732;48.534;20.382;2022-10-22T01:58:47;9.50;99.90
28520;DHT22;15732;48.534;20.382;2022-10-22T02:01:55;9.50;99.90
28520;DHT22;15732;48.534;20.382;2022-10-22T02:04:45;9.50;99.90
28520;DHT22;15732;48.534;20.382;2022-10-22T02:07:22;9.50;99.90
28520;DHT22;15732;48.534;20.382;2022-10-22T02:09:52;9.60;99.90
28520;DHT22;15732;48.534;20.382;2022-10-22T02:12:21;9.60;99.90
28520;DHT22;15732;48.534;20.382;2022-10-22T02:14:49;9.60;99.90
28520;DHT22;15732;48.534;20.382;2022-10-22T02:17:20;9.60;99.90
28520;DHT22;15732;48.534;20.382;2022-10-22T02:19:53;9.60;99.90
28520;DHT22;15732;48.534;20.382;2022-10-22T02:22:22;9.60;99.90
28520;DHT22;15732;48.534;20.382;2022-10-22T02:24:50;9.60;99.90
28520;DHT22;15732;48.534;20.382;2022-10-22T02:27:29;9.60;99.90
28520;DHT22;15732;48.534;20.382;2022-10-22T02:30:00;9.70;99.90
28520;DHT22;15732;48.534;20.382;2022-10-22T02:32:32;9.70;99.90
28520;DHT22;15732;48.534;20.382;2022-10-22T02:35:04;9.70;99.90
28520;DHT22;15732;48.534;20.382;2022-10-22T02:37:33;9.70;99.90
28520;DHT22;15732;48.534;20.382;2022-10-22T02:40:06;9.70;99.90
28520;DHT22;15732;48.534;20.382;2022-10-22T02:42:34;9.70;99.90
28520;DHT22;15732;48.534;20.382;2022-10-22T02:45:03;9.70;99.90
28520;DHT22;15732;48.534;20.382;2022-10-22T02:47:31;9.70;99.90
28520;DHT22;15732;48.534;20.382;2022-10-22T02:50:03;9.70;99.90
28520;DHT22;15732;48.534;20.382;2022-10-22T02:52:32;9.70;99.90
28520;DHT22;15732;48.534;20.382;2022-10-22T02:55:04;9.60;99.90
28520;DHT22;15732;48.534;20.382;2022-10-22T02:57:31;9.60;99.90
28520;DHT22;15732;48.534;20.382;2022-10-22T02:59:59;9.60;99.90
28520;DHT22;15732;48.534;20.382;2022-10-22T03:02:30;9.50;99.90
28520;DHT22;15732;48.534;20.382;2022-10-22T03:04:57;9.50;99.90
28520;DHT22;15732;48.534;20.382;2022-10-22T03:07:24;9.50;99.90
28520;DHT22;15732;48.534;20.382;2022-10-22T03:09:51;9.50;99.90
28520;DHT22;15732;48.534;20.382;2022-10-22T03:12:22;9.40;99.90
28520;DHT22;15732;48.534;20.382;2022-10-22T03:14:49;9.40;99.90
28520;DHT22;15732;48.534;20.382;2022-10-22T03:17:16;9.30;99.90
28520;DHT22;15732;48.534;20.382;2022-10-22T03:19:43;9.20;99.90
28520;DHT22;15732;48.534;20.382;2022-10-22T03:22:14;9.10;99.90
28520;DHT22;15732;48.534;20.382;2022-10-22T03:24:45;9.00;99.90
28520;DHT22;15732;48.534;20.382;2022-10-22T03:27:14;9.00;99.90
28520;DHT22;15732;48.534;20.382;2022-10-22T03:29:42;8.90;99.90
28520;DHT22;15732;48.534;20.382;2022-10-22T03:32:09;8.90;99.90
28520;DHT22;15732;48.534;20.382;2022-10-22T03:34:37;8.90;99.90
28520;DHT22;15732;48.534;20.382;2022-10-22T03:37:04;8.90;99.90
28520;DHT22;15732;48.534;20.382;2022-10-22T03:39:32;8.90;99.90
28520;DHT22;15732;48.534;20.382;2022-10-22T03:42:05;8.90;99.90
28520;DHT22;15732;48.534;20.382;2022-10-22T03:44:37;8.90;99.90
28520;DHT22;15732;48.534;20.382;2022-10-22T03:47:05;9.00;99.90
28520;DHT22;15732;48.534;20.382;2022-10-22T03:49:32;8.90;99.90
28520;DHT22;15732;48.534;20.382;2022-10-22T03:52:06;8.90;99.90
28520;DHT22;15732;48.534;20.382;2022-10-22T03:54:34;8.90;99.90
28520;DHT22;15732;48.534;20.382;2022-10-22T03:57:02;8.80;99.90
28520;DHT22;15732;48.534;20.382;2022-10-22T03:59:36;8.80;99.90
28520;DHT22;15732;48.534;20.382;2022-10-22T04:02:08;8.80;99.90
28520;DHT22;15732;48.534;20.382;2022-10-22T04:04:38;8.90;99.90
28520;DHT22;15732;48.534;20.382;2022-10-22T04:07:09;8.90;99.90
28520;DHT22;15732;48.534;20.382;2022-10-22T04:09:41;8.90;99.90
28520;DHT22;15732;48.534;20.382;2022-10-22T04:12:08;8.90;99.90
28520;DHT22;15732;48.534;20.382;2022-10-22T04:14:35;8.80;99.90
28520;DHT22;15732;48.534;20.382;2022-10-22T04:17:03;8.70;99.90
28520;DHT22;15732;48.534;20.382;2022-10-22T04:19:30;8.70;99.90
28520;DHT22;15732;48.534;20.382;2022-10-22T04:21:58;8.70;99.90
28520;DHT22;15732;48.534;20.382;2022-10-22T04:24:30;8.70;99.90
28520;DHT22;15732;48.534;20.382;2022-10-22T04:27:01;8.70;99.90
28520;DHT22;15732;48.534;20.382;2022-10-22T04:29:29;8.70;99.90
28520;DHT22;15732;48.534;20.382;2022-10-22T04:31:59;8.60;99.90
28520;DHT22;15732;48.534;20.382;2022-10-22T04:34:27;8.70;99.90
28520;DHT22;15732;48.534;20.382;2022-10-22T04:36:55;8.70;99.90
28520;DHT22;15732;48.534;20.382;2022-10-22T04:39:22;8.70;99.90
28520;DHT22;15732;48.534;20.382;2022-10-22T04:41:49;8.80;99.90
28520;DHT22;15732;48.534;20.382;2022-10-22T04:44:17;8.80;99.90
28520;DHT22;15732;48.534;20.382;2022-10-22T04:46:44;8.80;99.90
28520;DHT22;15732;48.534;20.382;2022-10-22T04:49:15;8.80;99.90
28520;DHT22;15732;48.534;20.382;2022-10-22T04:51:44;8.80;99.90
28520;DHT22;15732;48.534;20.382;2022-10-22T04:54:11;8.80;99.90
28520;DHT22;15732;48.534;20.382;2022-10-22T04:56:38;8.90;99.90
28520;DHT22;15732;48.534;20.382;2022-10-22T04:59:06;8.90;99.90
28520;DHT22;15732;48.534;20.382;2022-10-22T05:01:43;8.80;99.90
28520;DHT22;15732;48.534;20.382;2022-10-22T05:04:16;8.80;99.90
28520;DHT22;15732;48.534;20.382;2022-10-22T05:06:43;8.80;99.90
28520;DHT22;15732;48.534;20.382;2022-10-22T05:09:18;8.80;99.90
28520;DHT22;15732;48.534;20.382;2022-10-22T05:11:48;8.80;99.90
28520;DHT22;15732;48.534;20.382;2022-10-22T05:14:22;8.70;99.90
28520;DHT22;15732;48.534;20.382;2022-10-22T05:16:49;8.70;99.90
28520;DHT22;15732;48.534;20.382;2022-10-22T05:19:28;8.70;99.90
28520;DHT22;15732;48.534;20.382;2022-10-22T05:21:58;8.70;99.90
28520;DHT22;15732;48.534;20.382;2022-10-22T05:24:30;8.70;99.90
28520;DHT22;15732;48.534;20.382;2022-10-22T05:26:58;8.60;99.90
28520;DHT22;15732;48.534;20.382;2022-10-22T05:29:26;8.60;99.90
28520;DHT22;15732;48.534;20.382;2022-10-22T05:31:53;8.50;99.90
28520;DHT22;15732;48.534;20.382;2022-10-22T05:34:20;8.60;99.90
28520;DHT22;15732;48.534;20.382;2022-10-22T05:36:51;8.50;99.90
28520;DHT22;15732;48.534;20.382;2022-10-22T05:39:18;8.50;99.90
28520;DHT22;15732;48.534;20.382;2022-10-22T05:41:50;8.50;99.90
28520;DHT22;15732;48.534;20.382;2022-10-22T05:44:17;8.50;99.90
28520;DHT22;15732;48.534;20.382;2022-10-22T05:46:44;8.50;99.90
28520;DHT22;15732;48.534;20.382;2022-10-22T05:49:13;8.40;99.90
28520;DHT22;15732;48.534;20.382;2022-10-22T05:51:40;8.40;99.90
28520;DHT22;15732;48.534;20.382;2022-10-22T05:54:07;8.40;99.90
28520;DHT22;15732;48.534;20.382;2022-10-22T05:56:34;8.40;99.90
28520;DHT22;15732;48.534;20.382;2022-10-22T05:59:02;8.40;99.90
28520;DHT22;15732;48.534;20.382;2022-10-22T06:01:31;8.40;99.90
28520;DHT22;15732;48.534;20.382;2022-10-22T06:03:59;8.40;99.90
28520;DHT22;15732;48.534;20.382;2022-10-22T06:06:30;8.40;99.90
28520;DHT22;15732;48.534;20.382;2022-10-22T06:09:12;8.40;99.90
28520;DHT22;15732;48.534;20.382;2022-10-22T06:11:45;8.50;99.90
28520;DHT22;15732;48.534;20.382;2022-10-22T06:14:16;8.60;99.90
28520;DHT22;15732;48.534;20.382;2022-10-22T06:16:43;8.70;99.90
28520;DHT22;15732;48.534;20.382;2022-10-22T06:19:12;8.70;99.90
28520;DHT22;15732;48.534;20.382;2022-10-22T06:21:39;8.80;99.90
28520;DHT22;15732;48.534;20.382;2022-10-22T06:24:08;8.80;99.90
28520;DHT22;15732;48.534;20.382;2022-10-22T06:26:39;8.90;99.90
28520;DHT22;15732;48.534;20.382;2022-10-22T06:29:07;8.90;99.90
28520;DHT22;15732;48.534;20.382;2022-10-22T06:31:34;9.00;99.90
28520;DHT22;15732;48.534;20.382;2022-10-22T06:34:05;9.00;99.90
28520;DHT22;15732;48.534;20.382;2022-10-22T06:36:33;9.10;99.90
28520;DHT22;15732;48.534;20.382;2022-10-22T06:39:00;9.10;99.90
28520;DHT22;15732;48.534;20.382;2022-10-22T06:41:27;9.00;99.90
28520;DHT22;15732;48.534;20.382;2022-10-22T06:43:58;9.00;99.90
28520;DHT22;15732;48.534;20.382;2022-10-22T06:46:25;9.00;99.90
28520;DHT22;15732;48.534;20.382;2022-10-22T06:48:59;9.00;99.90
28520;DHT22;15732;48.534;20.382;2022-10-22T06:51:26;8.90;99.90
28520;DHT22;15732;48.534;20.382;2022-10-22T06:53:54;9.00;99.90
28520;DHT22;15732;48.534;20.382;2022-10-22T06:56:26;9.00;99.90
28520;DHT22;15732;48.534;20.382;2022-10-22T06:58:55;8.90;99.90
28520;DHT22;15732;48.534;20.382;2022-10-22T07:01:23;8.90;99.90
28520;DHT22;15732;48.534;20.382;2022-10-22T07:03:51;9.00;99.90
28520;DHT22;15732;48.534;20.382;2022-10-22T07:06:18;9.00;99.90
28520;DHT22;15732;48.534;20.382;2022-10-22T07:08:46;9.00;99.90
28520;DHT22;15732;48.534;20.382;2022-10-22T07:11:20;9.10;99.90
28520;DHT22;15732;48.534;20.382;2022-10-22T07:13:54;9.10;99.90
28520;DHT22;15732;48.534;20.382;2022-10-22T07:16:22;9.20;99.90
28520;DHT22;15732;48.534;20.382;2022-10-22T07:18:49;9.20;99.90
28520;DHT22;15732;48.534;20.382;2022-10-22T07:21:18;9.30;99.90
28520;DHT22;15732;48.534;20.382;2022-10-22T07:23:45;9.30;99.90
28520;DHT22;15732;48.534;20.382;2022-10-22T07:26:15;9.30;99.90
28520;DHT22;15732;48.534;20.382;2022-10-22T07:28:42;9.30;99.90
28520;DHT22;15732;48.534;20.382;2022-10-22T07:31:10;9.40;99.90
28520;DHT22;15732;48.534;20.382;2022-10-22T07:33:42;9.40;99.90
28520;DHT22;15732;48.534;20.382;2022-10-22T07:36:11;9.40;99.90
28520;DHT22;15732;48.534;20.382;2022-10-22T07:38:47;9.50;99.90
28520;DHT22;15732;48.534;20.382;2022-10-22T07:41:15;9.60;99.90
28520;DHT22;15732;48.534;20.382;2022-10-22T07:43:43;9.70;99.90
28520;DHT22;15732;48.534;20.382;2022-10-22T07:46:10;9.80;99.90
28520;DHT22;15732;48.534;20.382;2022-10-22T07:48:40;9.90;99.90
28520;DHT22;15732;48.534;20.382;2022-10-22T07:51:08;9.90;99.90
28520;DHT22;15732;48.534;20.382;2022-10-22T07:53:35;10.00;99.90
28520;DHT22;15732;48.534;20.382;2022-10-22T07:56:02;10.10;99.90
28520;DHT22;15732;48.534;20.382;2022-10-22T07:58:30;10.10;99.90
28520;DHT22;15732;48.534;20.382;2022-10-22T08:00:58;10.20;99.90
28520;DHT22;15732;48.534;20.382;2022-10-22T08:03:29;10.20;99.90
28520;DHT22;15732;48.534;20.382;2022-10-22T08:05:56;10.30;99.90
28520;DHT22;15732;48.534;20.382;2022-10-22T08:08:23;10.30;99.90
28520;DHT22;15732;48.534;20.382;2022-10-22T08:10:50;10.30;99.90
28520;DHT22;15732;48.534;20.382;2022-10-22T08:13:22;10.40;99.90
28520;DHT22;15732;48.534;20.382;2022-10-22T08:15:54;10.40;99.90
28520;DHT22;15732;48.534;20.382;2022-10-22T08:18:21;10.50;99.90
28520;DHT22;15732;48.534;20.382;2022-10-22T08:20:49;10.60;99.90
28520;DHT22;15732;48.534;20.382;2022-10-22T08:23:17;10.60;99.90
28520;DHT22;15732;48.534;20.382;2022-10-22T08:25:44;10.60;99.90
28520;DHT22;15732;48.534;20.382;2022-10-22T08:28:11;10.60;99.90
28520;DHT22;15732;48.534;20.382;2022-10-22T08:30:42;10.60;99.90
28520;DHT22;15732;48.534;20.382;2022-10-22T08:33:11;10.70;99.90
28520;DHT22;15732;48.534;20.382;2022-10-22T08:35:39;10.70;99.90
28520;DHT22;15732;48.534;20.382;2022-10-22T08:38:07;10.80;99.90
28520;DHT22;15732;48.534;20.382;2022-10-22T08:40:37;10.80;99.90
28520;DHT22;15732;48.534;20.382;2022-10-22T08:43:35;10.90;99.90
28520;DHT22;15732;48.534;20.382;2022-10-22T08:49:11;11.00;99.90
28520;DHT22;15732;48.534;20.382;2022-10-22T08:51:39;11.00;99.90
28520;DHT22;15732;48.534;20.382;2022-10-22T08:54:34;11.00;99.90
28520;DHT22;15732;48.534;20.382;2022-10-22T09:00:11;11.10;99.90
28520;DHT22;15732;48.534;20.382;2022-10-22T09:08:17;11.30;99.90
28520;DHT22;15732;48.534;20.382;2022-10-22T09:10:48;11.40;99.90
28520;DHT22;15732;48.534;20.382;2022-10-22T09:13:20;11.40;99.90
28520;DHT22;15732;48.534;20.382;2022-10-22T09:16:00;11.50;99.90
28520;DHT22;15732;48.534;20.382;2022-10-22T09:18:46;11.60;99.90
28520;DHT22;15732;48.534;20.382;2022-10-22T09:26:19;11.90;99.90
28520;DHT22;15732;48.534;20.382;2022-10-22T09:28:50;12.00;99.90
28520;DHT22;15732;48.534;20.382;2022-10-22T09:31:20;12.10;99.90
28520;DHT22;15732;48.534;20.382;2022-10-22T09:33:49;12.20;99.90
28520;DHT22;15732;48.534;20.382;2022-10-22T09:36:19;12.20;99.90
28520;DHT22;15732;48.534;20.382;2022-10-22T09:38:52;12.30;99.90
28520;DHT22;15732;48.534;20.382;2022-10-22T09:41:22;12.40;99.90
28520;DHT22;15732;48.534;20.382;2022-10-22T09:43:49;12.50;99.90
28520;DHT22;15732;48.534;20.382;2022-10-22T09:46:21;12.60;99.90
28520;DHT22;15732;48.534;20.382;2022-10-22T09:51:35;12.70;99.90
28520;DHT22;15732;48.534;20.382;2022-10-22T09:56:57;12.90;99.90
28520;DHT22;15732;48.534;20.382;2022-10-22T09:59:31;13.00;99.90
28520;DHT22;15732;48.534;20.382;2022-10-22T10:02:02;13.00;99.90
28520;DHT22;15732;48.534;20.382;2022-10-22T10:04:33;13.00;99.90
28520;DHT22;15732;48.534;20.382;2022-10-22T10:07:01;13.10;99.90
28520;DHT22;15732;48.534;20.382;2022-10-22T10:09:30;13.20;99.90
28520;DHT22;15732;48.534;20.382;2022-10-22T10:14:45;13.30;99.90
28520;DHT22;15732;48.534;20.382;2022-10-22T10:30:43;13.50;99.90
28520;DHT22;15732;48.534;20.382;2022-10-22T10:36:17;13.50;99.90
28520;DHT22;15732;48.534;20.382;2022-10-22T10:41:25;13.50;99.90
28520;DHT22;15732;48.534;20.382;2022-10-22T10:49:29;13.50;99.90
28520;DHT22;15732;48.534;20.382;2022-10-22T10:57:38;13.60;99.90
28520;DHT22;15732;48.534;20.382;2022-10-22T11:00:15;13.60;99.90
28520;DHT22;15732;48.534;20.382;2022-10-22T11:03:10;13.60;99.90
28520;DHT22;15732;48.534;20.382;2022-10-22T11:06:16;13.60;99.90
28520;DHT22;15732;48.534;20.382;2022-10-22T11:08:56;13.70;99.90
28520;DHT22;15732;48.534;20.382;2022-10-22T11:11:42;13.70;99.90
28520;DHT22;15732;48.534;20.382;2022-10-22T11:17:16;13.70;99.90
28520;DHT22;15732;48.534;20.382;2022-10-22T11:27:55;13.70;99.90
28520;DHT22;15732;48.534;20.382;2022-10-22T11:30:30;13.80;99.90
28520;DHT22;15732;48.534;20.382;2022-10-22T11:33:04;13.80;99.90
28520;DHT22;15732;48.534;20.382;2022-10-22T11:35:58;13.80;99.90
28520;DHT22;15732;48.534;20.382;2022-10-22T11:38:28;13.80;99.90
28520;DHT22;15732;48.534;20.382;2022-10-22T11:43:55;13.80;99.90
28520;DHT22;15732;48.534;20.382;2022-10-22T11:51:41;13.90;99.90
28520;DHT22;15732;48.534;20.382;2022-10-22T11:59:48;13.90;99.90
28520;DHT22;15732;48.534;20.382;2022-10-22T12:02:44;13.90;99.90
28520;DHT22;15732;48.534;20.382;2022-10-22T12:08:22;13.90;99.90
28520;DHT22;15732;48.534;20.382;2022-10-22T12:13:31;13.90;99.90
28520;DHT22;15732;48.534;20.382;2022-10-22T12:16:03;13.90;99.90
28520;DHT22;15732;48.534;20.382;2022-10-22T12:18:39;13.90;99.90
28520;DHT22;15732;48.534;20.382;2022-10-22T12:21:11;13.80;99.90
28520;DHT22;15732;48.534;20.382;2022-10-22T12:23:39;13.80;99.90
28520;DHT22;15732;48.534;20.382;2022-10-22T12:26:26;13.80;99.90
28520;DHT22;15732;48.534;20.382;2022-10-22T12:29:11;13.80;99.90
28520;DHT22;15732;48.534;20.382;2022-10-22T12:31:40;13.80;99.90
28520;DHT22;15732;48.534;20.382;2022-10-22T12:34:14;13.80;99.90
28520;DHT22;15732;48.534;20.382;2022-10-22T12:36:41;13.80;99.90
28520;DHT22;15732;48.534;20.382;2022-10-22T12:39:13;13.80;99.90
28520;DHT22;15732;48.534;20.382;2022-10-22T12:41:41;13.70;99.90
28520;DHT22;15732;48.534;20.382;2022-10-22T12:44:11;13.70;99.90
28520;DHT22;15732;48.534;20.382;2022-10-22T12:46:39;13.70;99.90
28520;DHT22;15732;48.534;20.382;2022-10-22T12:49:15;13.70;99.90
28520;DHT22;15732;48.534;20.382;2022-10-22T12:51:47;13.70;99.90
28520;DHT22;15732;48.534;20.382;2022-10-22T12:54:25;13.60;99.90
28520;DHT22;15732;48.534;20.382;2022-10-22T12:56:54;13.60;99.90
28520;DHT22;15732;48.534;20.382;2022-10-22T12:59:35;13.60;99.90
28520;DHT22;15732;48.534;20.382;2022-10-22T13:02:10;13.60;99.90
28520;DHT22;15732;48.534;20.382;2022-10-22T13:04:41;13.50;99.90
28520;DHT22;15732;48.534;20.382;2022-10-22T13:12:09;13.50;99.90
28520;DHT22;15732;48.534;20.382;2022-10-22T13:14:44;13.50;99.90
28520;DHT22;15732;48.534;20.382;2022-10-22T13:27:47;13.40;99.90
28520;DHT22;15732;48.534;20.382;2022-10-22T13:30:27;13.40;99.90
28520;DHT22;15732;48.534;20.382;2022-10-22T13:33:05;13.40;99.90
28520;DHT22;15732;48.534;20.382;2022-10-22T13:35:35;13.40;99.90
28520;DHT22;15732;48.534;20.382;2022-10-22T13:38:11;13.30;99.90
28520;DHT22;15732;48.534;20.382;2022-10-22T13:40:41;13.30;99.90
28520;DHT22;15732;48.534;20.382;2022-10-22T13:43:09;13.30;99.90
28520;DHT22;15732;48.534;20.382;2022-10-22T13:45:36;13.30;99.90
28520;DHT22;15732;48.534;20.382;2022-10-22T13:48:03;13.30;99.90
28520;DHT22;15732;48.534;20.382;2022-10-22T13:50:31;13.30;99.90
28520;DHT22;15732;48.534;20.382;2022-10-22T13:52:58;13.30;99.90
28520;DHT22;15732;48.534;20.382;2022-10-22T13:55:28;13.30;99.90
28520;DHT22;15732;48.534;20.382;2022-10-22T13:58:16;13.30;99.90
28520;DHT22;15732;48.534;20.382;2022-10-22T14:01:03;13.30;99.90
28520;DHT22;15732;48.534;20.382;2022-10-22T14:03:36;13.30;99.90
28520;DHT22;15732;48.534;20.382;2022-10-22T14:06:06;13.20;99.90
28520;DHT22;15732;48.534;20.382;2022-10-22T14:08:37;13.20;99.90
28520;DHT22;15732;48.534;20.382;2022-10-22T14:11:10;13.20;99.90
28520;DHT22;15732;48.534;20.382;2022-10-22T14:13:37;13.20;99.90
28520;DHT22;15732;48.534;20.382;2022-10-22T14:16:06;13.20;99.90
28520;DHT22;15732;48.534;20.382;2022-10-22T14:18:35;13.20;99.90
28520;DHT22;15732;48.534;20.382;2022-10-22T14:21:03;13.20;99.90
28520;DHT22;15732;48.534;20.382;2022-10-22T14:23:34;13.20;99.90
28520;DHT22;15732;48.534;20.382;2022-10-22T14:26:02;13.10;99.90
28520;DHT22;15732;48.534;20.382;2022-10-22T14:28:29;13.10;99.90
28520;DHT22;15732;48.534;20.382;2022-10-22T14:31:00;13.10;99.90
28520;DHT22;15732;48.534;20.382;2022-10-22T14:33:31;13.00;99.90
28520;DHT22;15732;48.534;20.382;2022-10-22T14:36:00;13.00;99.90
28520;DHT22;15732;48.534;20.382;2022-10-22T14:38:28;13.00;99.90
28520;DHT22;15732;48.534;20.382;2022-10-22T14:40:55;12.90;99.90
28520;DHT22;15732;48.534;20.382;2022-10-22T14:43:29;12.90;99.90
28520;DHT22;15732;48.534;20.382;2022-10-22T14:46:00;12.90;99.90
28520;DHT22;15732;48.534;20.382;2022-10-22T14:48:28;12.90;99.90
28520;DHT22;15732;48.534;20.382;2022-10-22T14:50:59;12.80;99.90
28520;DHT22;15732;48.534;20.382;2022-10-22T14:53:26;12.80;99.90
28520;DHT22;15732;48.534;20.382;2022-10-22T14:55:53;12.80;99.90
28520;DHT22;15732;48.534;20.382;2022-10-22T14:58:27;12.80;99.90
28520;DHT22;15732;48.534;20.382;2022-10-22T15:00:54;12.80;99.90
28520;DHT22;15732;48.534;20.382;2022-10-22T15:03:25;12.70;99.90
28520;DHT22;15732;48.534;20.382;2022-10-22T15:05:52;12.70;99.90
28520;DHT22;15732;48.534;20.382;2022-10-22T15:08:21;12.70;99.90
28520;DHT22;15732;48.534;20.382;2022-10-22T15:13:31;12.60;99.90
28520;DHT22;15732;48.534;20.382;2022-10-22T15:15:59;12.60;99.90
28520;DHT22;15732;48.534;20.382;2022-10-22T15:18:30;12.60;99.90
28520;DHT22;15732;48.534;20.382;2022-10-22T15:21:12;12.50;99.90
28520;DHT22;15732;48.534;20.382;2022-10-22T15:23:40;12.50;99.90
28520;DHT22;15732;48.534;20.382;2022-10-22T15:26:10;12.50;99.90
28520;DHT22;15732;48.534;20.382;2022-10-22T15:28:38;12.50;99.90
28520;DHT22;15732;48.534;20.382;2022-10-22T15:31:06;12.50;99.90
28520;DHT22;15732;48.534;20.382;2022-10-22T15:33:37;12.50;99.90
28520;DHT22;15732;48.534;20.382;2022-10-22T15:36:14;12.40;99.90
28520;DHT22;15732;48.534;20.382;2022-10-22T15:38:42;12.40;99.90
28520;DHT22;15732;48.534;20.382;2022-10-22T15:41:10;12.40;99.90
28520;DHT22;15732;48.534;20.382;2022-10-22T15:43:42;12.40;99.90
28520;DHT22;15732;48.534;20.382;2022-10-22T15:46:14;12.40;99.90
28520;DHT22;15732;48.534;20.382;2022-10-22T15:48:41;12.40;99.90
28520;DHT22;15732;48.534;20.382;2022-10-22T15:51:28;12.40;99.90
28520;DHT22;15732;48.534;20.382;2022-10-22T15:53:57;12.40;99.90
28520;DHT22;15732;48.534;20.382;2022-10-22T15:56:25;12.30;99.90
28520;DHT22;15732;48.534;20.382;2022-10-22T15:59:02;12.30;99.90
28520;DHT22;15732;48.534;20.382;2022-10-22T16:01:40;12.30;99.90
28520;DHT22;15732;48.534;20.382;2022-10-22T16:04:08;12.30;99.90
28520;DHT22;15732;48.534;20.382;2022-10-22T16:06:40;12.30;99.90
28520;DHT22;15732;48.534;20.382;2022-10-22T16:09:10;12.30;99.90
28520;DHT22;15732;48.534;20.382;2022-10-22T16:11:38;12.30;99.90
28520;DHT22;15732;48.534;20.382;2022-10-22T16:14:05;12.30;99.90
28520;DHT22;15732;48.534;20.382;2022-10-22T16:16:34;12.30;99.90
28520;DHT22;15732;48.534;20.382;2022-10-22T16:19:01;12.30;99.90
28520;DHT22;15732;48.534;20.382;2022-10-22T16:21:29;12.30;99.90
28520;DHT22;15732;48.534;20.382;2022-10-22T16:23:55;12.30;99.90
28520;DHT22;15732;48.534;20.382;2022-10-22T16:26:27;12.20;99.90
28520;DHT22;15732;48.534;20.382;2022-10-22T16:28:54;12.30;99.90
28520;DHT22;15732;48.534;20.382;2022-10-22T16:31:21;12.20;99.90
28520;DHT22;15732;48.534;20.382;2022-10-22T16:33:49;12.20;99.90
28520;DHT22;15732;48.534;20.382;2022-10-22T16:36:20;12.10;99.90
28520;DHT22;15732;48.534;20.382;2022-10-22T16:38:48;12.10;99.90
28520;DHT22;15732;48.534;20.382;2022-10-22T16:41:20;12.10;99.90
28520;DHT22;15732;48.534;20.382;2022-10-22T16:43:49;12.10;99.90
28520;DHT22;15732;48.534;20.382;2022-10-22T16:46:21;12.10;99.90
28520;DHT22;15732;48.534;20.382;2022-10-22T16:48:50;12.00;99.90
28520;DHT22;15732;48.534;20.382;2022-10-22T16:51:20;12.00;99.90
28520;DHT22;15732;48.534;20.382;2022-10-22T16:53:47;11.90;99.90
28520;DHT22;15732;48.534;20.382;2022-10-22T16:56:15;11.80;99.90
28520;DHT22;15732;48.534;20.382;2022-10-22T16:58:43;11.80;99.90
28520;DHT22;15732;48.534;20.382;2022-10-22T17:01:15;11.90;99.90
28520;DHT22;15732;48.534;20.382;2022-10-22T17:03:42;11.90;99.90
28520;DHT22;15732;48.534;20.382;2022-10-22T17:06:09;11.90;99.90
28520;DHT22;15732;48.534;20.382;2022-10-22T17:08:40;11.90;99.90
28520;DHT22;15732;48.534;20.382;2022-10-22T17:11:09;11.90;99.90
28520;DHT22;15732;48.534;20.382;2022-10-22T17:13:40;11.90;99.90
28520;DHT22;15732;48.534;20.382;2022-10-22T17:16:10;12.00;99.90
28520;DHT22;15732;48.534;20.382;2022-10-22T17:18:43;11.90;99.90
28520;DHT22;15732;48.534;20.382;2022-10-22T17:21:12;12.00;99.90
28520;DHT22;15732;48.534;20.382;2022-10-22T17:23:39;12.00;99.90
28520;DHT22;15732;48.534;20.382;2022-10-22T17:26:30;12.00;99.90
28520;DHT22;15732;48.534;20.382;2022-10-22T17:29:03;12.00;99.90
28520;DHT22;15732;48.534;20.382;2022-10-22T17:31:35;11.90;99.90
28520;DHT22;15732;48.534;20.382;2022-10-22T17:34:04;12.00;99.90
28520;DHT22;15732;48.534;20.382;2022-10-22T17:36:32;11.90;99.90
28520;DHT22;15732;48.534;20.382;2022-10-22T17:39:01;11.90;99.90
28520;DHT22;15732;48.534;20.382;2022-10-22T17:41:31;11.90;99.90
28520;DHT22;15732;48.534;20.382;2022-10-22T17:44:00;11.90;99.90
28520;DHT22;15732;48.534;20.382;2022-10-22T17:46:31;11.90;99.90
28520;DHT22;15732;48.534;20.382;2022-10-22T17:49:05;11.90;99.90